Time;durP1;ratioP1;P1;durP2;ratioP2;P2;SDS_P1;SDS_P2;PMS_P1;PMS_P2;Temp;Humidity;BMP_temperature;BMP_pressure;BME280_temperature;BME280_humidity;BME280_pressure;Samples;Min_cycle;Max_cycle;Signal;HPM_P1;HPM_P2
2022/04/10 00:00:53;;;;;;;10.75;4.47;;;;;;;23.56;16.53;97585.31;5074075;28;20154;-73
2022/04/10 00:03:19;;;;;;;7.10;3.63;;;;;;;23.42;16.21;97579.31;5071855;28;20031;-74
2022/04/10 00:05:46;;;;;;;9.75;4.55;;;;;;;23.14;16.53;97569.63;5077136;28;20520;-74
2022/04/10 00:08:12;;;;;;;6.22;3.58;;;;;;;22.78;17.15;97577.38;5070798;28;20036;-74
2022/04/10 00:10:38;;;;;;;7.63;4.28;;;;;;;22.86;17.18;97590.72;5071341;28;20036;-73
2022/04/10 00:13:04;;;;;;;9.30;4.60;;;;;;;23.13;16.97;97585.63;5070893;28;20158;-74
2022/04/10 00:15:30;;;;;;;9.25;4.68;;;;;;;23.36;16.79;97590.28;5074585;28;20060;-73
2022/04/10 00:17:56;;;;;;;7.57;4.18;;;;;;;23.61;16.48;97589.59;5071129;28;20021;-73
2022/04/10 00:20:22;;;;;;;7.88;4.25;;;;;;;23.93;15.96;97597.88;5076269;28;20044;-73
2022/04/10 00:22:49;;;;;;;6.93;4.40;;;;;;;23.84;15.64;97597.75;5075055;28;20040;-73
2022/04/10 00:25:18;;;;;;;7.15;4.30;;;;;;;23.28;16.07;97600.84;5071376;28;20136;-74
2022/04/10 00:27:44;;;;;;;10.70;4.82;;;;;;;23.22;15.91;97599.03;5070880;28;20090;-74
2022/04/10 00:30:13;;;;;;;10.18;4.85;;;;;;;23.48;15.71;97608.38;5072900;28;20102;-73
2022/04/10 00:32:39;;;;;;;9.70;4.53;;;;;;;23.64;15.68;97613.94;5073979;28;20024;-73
2022/04/10 00:35:07;;;;;;;10.27;4.97;;;;;;;23.53;15.99;97619.81;5073460;28;20044;-73
2022/04/10 00:37:34;;;;;;;7.47;4.35;;;;;;;23.43;16.02;97614.50;5079670;28;20020;-74
2022/04/10 00:40:00;;;;;;;7.60;4.32;;;;;;;23.53;15.99;97625.44;5077552;28;20033;-73
2022/04/10 00:42:32;;;;;;;7.82;4.22;;;;;;;23.50;16.27;97625.53;5078580;28;20036;-73
2022/04/10 00:44:59;;;;;;;7.90;3.72;;;;;;;23.58;16.00;97626.91;5077055;28;20569;-74
2022/04/10 00:47:26;;;;;;;6.88;4.30;;;;;;;23.24;15.93;97633.75;5075683;28;20036;-73
2022/04/10 00:49:52;;;;;;;8.50;4.95;;;;;;;23.28;16.23;97630.88;5076863;28;20115;-74
2022/04/10 00:52:19;;;;;;;6.93;3.33;;;;;;;23.23;16.43;97639.81;5077400;28;21387;-73
2022/04/10 00:54:46;;;;;;;7.65;3.67;;;;;;;23.40;16.22;97629.41;5074598;28;20620;-74
2022/04/10 00:57:12;;;;;;;6.40;3.67;;;;;;;23.41;16.23;97628.19;5074446;28;20024;-74
2022/04/10 00:59:40;;;;;;;11.32;4.30;;;;;;;23.36;16.57;97632.31;5081597;28;20037;-74
2022/04/10 01:02:06;;;;;;;6.82;2.92;;;;;;;23.48;16.47;97625.19;5072856;28;20432;-74
2022/04/10 01:04:32;;;;;;;7.53;3.33;;;;;;;23.44;16.16;97628.06;5075620;28;20025;-74
2022/04/10 01:07:00;;;;;;;4.95;2.95;;;;;;;23.35;16.40;97623.09;5073321;28;20036;-74
2022/04/10 01:09:27;;;;;;;4.50;2.22;;;;;;;23.19;16.31;97633.50;5073793;28;20032;-74
2022/04/10 01:11:54;;;;;;;5.28;2.67;;;;;;;23.29;16.38;97629.66;5073728;28;20031;-74
2022/04/10 01:14:21;;;;;;;7.10;3.00;;;;;;;23.42;16.47;97622.13;5075038;28;21717;-74
2022/04/10 01:16:47;;;;;;;3.75;2.38;;;;;;;23.47;16.04;97620.81;5073182;28;20036;-74
2022/04/10 01:19:15;;;;;;;3.85;2.45;;;;;;;23.36;16.18;97626.69;5077314;28;20107;-74
2022/04/10 01:21:49;;;;;;;4.70;2.85;;;;;;;23.41;15.96;97623.34;5070907;28;20029;-74
2022/04/10 01:24:16;;;;;;;5.05;2.58;;;;;;;23.47;15.96;97616.00;5072951;28;20058;-74
2022/04/10 01:26:43;;;;;;;6.78;3.22;;;;;;;23.65;16.10;97624.69;5073836;28;20476;-73
2022/04/10 01:29:13;;;;;;;6.90;3.47;;;;;;;23.78;15.48;97619.91;5073025;28;20062;-74
2022/04/10 01:31:45;;;;;;;7.78;4.10;;;;;;;23.87;15.37;97634.09;5075606;28;20078;-74
2022/04/10 01:34:16;;;;;;;5.20;2.92;;;;;;;23.75;15.45;97629.22;5075383;28;20036;-74
2022/04/10 01:36:43;;;;;;;5.57;3.28;;;;;;;23.89;15.48;97634.44;5072887;28;20466;-74
2022/04/10 01:39:11;;;;;;;8.15;3.53;;;;;;;23.73;15.65;97634.50;5071382;28;20545;-74
2022/04/10 01:41:38;;;;;;;6.18;3.63;;;;;;;23.77;15.63;97634.38;5070199;28;20047;-74
2022/04/10 01:44:06;;;;;;;10.10;4.88;;;;;;;23.75;15.77;97634.84;5071301;28;20082;-74
2022/04/10 01:46:33;;;;;;;7.55;4.65;;;;;;;23.75;15.86;97629.22;5073744;28;20077;-74
2022/04/10 01:48:59;;;;;;;6.88;3.70;;;;;;;23.61;16.18;97634.44;5072133;28;20383;-74
2022/04/10 01:51:27;;;;;;;4.47;3.15;;;;;;;23.67;15.78;97641.84;5074194;28;20032;-74
2022/04/10 01:53:54;;;;;;;4.78;3.42;;;;;;;23.66;15.75;97637.50;5075819;28;20046;-74
2022/04/10 01:56:20;;;;;;;6.32;3.70;;;;;;;23.77;15.76;97640.78;5074948;28;20371;-74
2022/04/10 01:58:48;;;;;;;6.35;3.85;;;;;;;23.59;16.11;97643.28;5069909;28;20638;-74
2022/04/10 02:01:15;;;;;;;5.10;3.33;;;;;;;23.50;15.91;97645.91;5072633;28;20029;-74
2022/04/10 02:03:43;;;;;;;7.47;3.33;;;;;;;23.28;15.93;97647.69;5075155;28;20032;-73
2022/04/10 02:06:11;;;;;;;5.38;3.17;;;;;;;23.13;16.38;97660.44;5071968;28;20021;-74
2022/04/10 02:08:38;;;;;;;4.68;3.20;;;;;;;23.27;16.18;97662.91;5077172;28;20428;-74
2022/04/10 02:11:12;;;;;;;7.03;2.85;;;;;;;23.30;16.20;97660.03;5075020;28;20032;-74
2022/04/10 02:13:39;;;;;;;8.07;3.05;;;;;;;23.48;16.16;97653.97;5070777;28;20032;-74
2022/04/10 02:16:08;;;;;;;6.35;3.03;;;;;;;23.57;16.37;97670.94;5075912;28;20040;-74
2022/04/10 02:18:35;;;;;;;4.07;2.58;;;;;;;23.73;16.03;97667.34;5073451;28;20038;-73
2022/04/10 02:21:01;;;;;;;4.03;2.58;;;;;;;23.77;16.02;97679.25;5071137;28;20036;-74
2022/04/10 02:23:27;;;;;;;3.85;2.42;;;;;;;23.86;15.97;97665.38;5072828;28;20041;-74
2022/04/10 02:25:54;;;;;;;2.45;2.20;;;;;;;23.93;15.76;97677.19;5074502;28;20055;-74
2022/04/10 02:28:20;;;;;;;6.20;2.60;;;;;;;24.04;15.78;97682.47;5071200;28;20041;-74
2022/04/10 02:30:46;;;;;;;4.10;2.50;;;;;;;23.81;16.00;97686.31;5076933;28;20024;-74
2022/04/10 02:33:12;;;;;;;5.07;2.10;;;;;;;23.71;16.25;97683.81;5068517;28;20050;-74
2022/04/10 02:35:40;;;;;;;3.35;2.38;;;;;;;23.57;16.45;97687.75;5077339;28;20063;-74
2022/04/10 02:38:06;;;;;;;4.88;2.58;;;;;;;23.58;16.55;97688.56;5073407;28;20035;-74
2022/04/10 02:40:32;;;;;;;3.63;1.95;;;;;;;23.57;16.66;97693.38;5074453;28;20028;-74
2022/04/10 02:42:58;;;;;;;4.57;2.53;;;;;;;23.47;16.80;97697.25;5071987;28;20041;-74
2022/04/10 02:45:25;;;;;;;6.15;2.75;;;;;;;23.61;16.66;97702.50;5071623;28;20464;-74
2022/04/10 02:47:51;;;;;;;6.78;3.38;;;;;;;23.76;16.55;97700.88;5077722;28;20044;-74
2022/04/10 02:50:18;;;;;;;4.15;2.53;;;;;;;23.93;16.27;97701.63;5074539;28;20039;-74
2022/04/10 02:52:44;;;;;;;4.30;2.65;;;;;;;23.81;16.44;97708.75;5073246;28;20039;-74
2022/04/10 02:55:10;;;;;;;4.85;2.78;;;;;;;23.86;16.52;97707.44;5072611;28;20028;-74
2022/04/10 02:57:37;;;;;;;4.65;2.63;;;;;;;23.84;16.76;97710.69;5070822;28;20055;-74
2022/04/10 03:00:05;;;;;;;4.50;2.67;;;;;;;23.96;16.49;97709.97;5069039;28;20390;-74
2022/04/10 03:02:31;;;;;;;3.92;2.40;;;;;;;23.93;16.56;97716.44;5073451;28;20490;-74
2022/04/10 03:04:57;;;;;;;5.65;2.92;;;;;;;23.72;16.68;97721.81;5072341;28;20486;-74
2022/04/10 03:07:23;;;;;;;4.03;2.75;;;;;;;23.51;16.75;97723.16;5074010;28;20086;-74
2022/04/10 03:09:49;;;;;;;12.02;5.88;;;;;;;23.63;17.01;97719.66;5073085;28;20042;-74
2022/04/10 03:12:16;;;;;;;7.82;3.42;;;;;;;23.72;16.84;97724.63;5070591;28;20028;-74
2022/04/10 03:14:42;;;;;;;5.40;2.72;;;;;;;23.85;16.47;97729.06;5073009;28;20035;-74
2022/04/10 03:17:08;;;;;;;4.13;3.13;;;;;;;23.61;16.72;97727.72;5077835;28;20682;-74
2022/04/10 03:19:34;;;;;;;7.35;3.55;;;;;;;23.11;17.60;97742.13;5076571;28;20501;-74
2022/04/10 03:22:00;;;;;;;4.55;3.15;;;;;;;22.84;17.67;97737.94;5073231;28;20035;-74
2022/04/10 03:24:26;;;;;;;6.25;3.58;;;;;;;22.98;17.71;97752.44;5069983;28;20048;-74
2022/04/10 03:26:52;;;;;;;5.32;3.20;;;;;;;22.92;17.75;97744.97;5075614;28;20051;-74
2022/04/10 03:29:18;;;;;;;4.72;2.90;;;;;;;23.09;17.25;97743.78;5073516;28;20035;-74
2022/04/10 03:31:45;;;;;;;6.53;3.08;;;;;;;23.30;17.34;97749.66;5074196;28;20023;-74
2022/04/10 03:34:11;;;;;;;6.40;3.42;;;;;;;23.43;17.11;97754.59;5074521;28;20489;-74
2022/04/10 03:36:37;;;;;;;4.63;2.83;;;;;;;23.73;16.85;97755.03;5075937;28;20036;-74
2022/04/10 03:39:03;;;;;;;5.15;2.97;;;;;;;23.88;16.53;97749.81;5076168;28;20055;-74
2022/04/10 03:41:29;;;;;;;7.78;2.30;;;;;;;24.01;16.41;97759.88;5073426;28;20035;-74
2022/04/10 03:43:55;;;;;;;4.22;2.60;;;;;;;23.86;16.34;97764.28;5070736;28;20036;-74
2022/04/10 03:46:21;;;;;;;5.03;2.47;;;;;;;23.91;16.07;97766.56;5074142;28;20044;-74
2022/04/10 03:48:47;;;;;;;4.65;2.78;;;;;;;23.88;15.82;97770.25;5073794;28;20036;-74
2022/04/10 03:51:13;;;;;;;7.95;3.45;;;;;;;23.56;15.88;97772.28;5070807;28;20415;-74
2022/04/10 03:53:40;;;;;;;7.90;4.03;;;;;;;23.63;15.76;97774.91;5074096;28;20032;-74
2022/04/10 03:56:06;;;;;;;8.68;3.83;;;;;;;23.63;15.58;97780.50;5070899;28;20028;-74
2022/04/10 03:58:32;;;;;;;3.30;3.00;;;;;;;23.41;15.94;97787.88;5074346;28;20029;-73
2022/04/10 04:00:58;;;;;;;6.28;3.60;;;;;;;23.30;15.97;97796.50;5069615;28;20033;-73
2022/04/10 04:03:25;;;;;;;6.68;3.97;;;;;;;23.24;16.36;97795.44;5072973;28;20029;-74
2022/04/10 04:05:51;;;;;;;3.45;2.08;;;;;;;23.09;16.34;97800.56;5079972;28;22737;-74
2022/04/10 04:08:17;;;;;;;5.93;3.45;;;;;;;23.33;16.54;97796.41;5080934;28;20069;-74
2022/04/10 04:10:43;;;;;;;9.68;3.28;;;;;;;23.51;16.33;97814.84;5077758;28;20044;-74
2022/04/10 04:13:09;;;;;;;6.60;3.95;;;;;;;23.59;16.22;97805.06;5079946;28;20438;-73
2022/04/10 04:15:35;;;;;;;4.25;2.63;;;;;;;23.25;16.49;97811.00;5079846;28;20598;-74
2022/04/10 04:18:01;;;;;;;5.85;3.00;;;;;;;23.19;16.58;97819.16;5080710;28;20061;-74
2022/04/10 04:20:27;;;;;;;4.30;2.50;;;;;;;23.05;17.01;97813.88;5079744;28;20039;-74
2022/04/10 04:22:54;;;;;;;4.38;2.33;;;;;;;23.21;16.81;97818.72;5084625;28;20043;-74
2022/04/10 04:25:20;;;;;;;7.32;3.13;;;;;;;23.51;16.74;97815.63;5079031;28;20406;-74
2022/04/10 04:27:46;;;;;;;3.88;2.50;;;;;;;23.85;16.50;97824.41;5092448;28;20497;-75
2022/04/10 04:30:12;;;;;;;2.83;2.05;;;;;;;23.94;16.27;97818.19;5086145;28;20039;-74
2022/04/10 04:32:39;;;;;;;5.22;2.67;;;;;;;23.88;16.42;97820.72;5080029;28;20395;-75
2022/04/10 04:35:05;;;;;;;4.18;2.55;;;;;;;23.89;16.56;97825.13;5078381;28;20115;-74
2022/04/10 04:37:31;;;;;;;7.43;3.78;;;;;;;23.82;16.81;97825.28;5079929;28;20032;-74
2022/04/10 04:39:58;;;;;;;5.00;2.97;;;;;;;23.84;16.83;97827.66;5077520;28;20024;-74
2022/04/10 04:42:24;;;;;;;4.43;2.83;;;;;;;24.12;16.69;97835.38;5077386;28;20098;-74
2022/04/10 04:44:50;;;;;;;5.70;3.20;;;;;;;24.48;16.49;97838.03;5075622;28;20520;-74
2022/04/10 04:47:16;;;;;;;6.03;3.42;;;;;;;24.70;16.36;97828.56;5074333;28;20430;-73
2022/04/10 04:49:42;;;;;;;20.55;8.27;;;;;;;24.97;16.21;97839.44;5077267;28;20498;-74
2022/04/10 04:52:08;;;;;;;38.03;14.98;;;;;;;25.33;16.12;97839.97;5075521;28;20029;-74
2022/04/10 04:54:34;;;;;;;49.35;19.15;;;;;;;25.72;15.85;97837.97;5074079;28;20047;-74
2022/04/10 04:57:00;;;;;;;49.72;19.35;;;;;;;25.78;15.84;97831.34;5076361;28;20024;-74
2022/04/10 04:59:26;;;;;;;40.20;15.45;;;;;;;25.37;16.09;97839.84;5075980;28;20033;-74
2022/04/10 05:01:52;;;;;;;9.43;5.10;;;;;;;24.80;16.37;97849.19;5077043;28;20064;-74
2022/04/10 05:04:20;;;;;;;4.47;3.00;;;;;;;24.64;16.69;97857.63;5077708;28;20063;-74
2022/04/10 05:06:46;;;;;;;7.25;4.20;;;;;;;24.66;16.64;97857.97;5080015;28;20032;-74
2022/04/10 05:09:12;;;;;;;6.45;3.88;;;;;;;24.63;17.17;97847.63;5071386;28;20028;-74
2022/04/10 05:11:38;;;;;;;3.88;3.08;;;;;;;24.43;17.04;97858.22;5077430;28;20036;-74
2022/04/10 05:14:05;;;;;;;8.38;3.55;;;;;;;24.48;17.08;97860.47;5077261;28;20084;-75
2022/04/10 05:16:31;;;;;;;7.95;4.55;;;;;;;24.67;16.88;97859.53;5075926;28;20115;-74
2022/04/10 05:18:57;;;;;;;6.70;4.05;;;;;;;24.62;16.92;97857.28;5074374;28;20531;-74
2022/04/10 05:21:23;;;;;;;7.55;3.60;;;;;;;24.68;17.11;97861.13;5073334;28;20045;-75
2022/04/10 05:23:49;;;;;;;5.05;3.45;;;;;;;25.02;17.19;97869.03;5079094;28;20039;-75
2022/04/10 05:26:15;;;;;;;6.25;3.20;;;;;;;25.26;16.99;97865.47;5074590;28;20036;-75
2022/04/10 05:28:41;;;;;;;5.30;3.45;;;;;;;25.31;17.16;97872.56;5081022;28;20510;-75
2022/04/10 05:31:07;;;;;;;4.47;3.50;;;;;;;25.74;16.92;97869.25;5077996;28;20046;-75
2022/04/10 05:33:34;;;;;;;5.07;3.58;;;;;;;25.92;16.35;97867.44;5076300;28;20032;-75
2022/04/10 05:36:01;;;;;;;6.38;3.65;;;;;;;25.86;16.79;97869.22;5076818;28;20028;-75
2022/04/10 05:38:27;;;;;;;6.22;4.15;;;;;;;25.92;16.57;97869.44;5078429;28;20119;-75
2022/04/10 05:40:53;;;;;;;5.65;3.53;;;;;;;25.91;16.85;97874.28;5074845;28;20587;-74
2022/04/10 05:43:23;;;;;;;6.35;4.10;;;;;;;26.01;16.78;97878.00;5075413;28;21509;-75
2022/04/10 05:45:50;;;;;;;5.75;3.65;;;;;;;25.85;16.50;97878.13;5077835;28;20033;-75
2022/04/10 05:48:16;;;;;;;5.20;3.25;;;;;;;25.62;17.27;97876.44;5076006;28;20056;-75
2022/04/10 05:50:43;;;;;;;4.60;3.58;;;;;;;25.71;17.08;97887.00;5076118;28;20032;-75
2022/04/10 05:53:09;;;;;;;4.13;2.97;;;;;;;24.43;18.19;97886.28;5075847;28;20028;-75
2022/04/10 05:55:36;;;;;;;8.35;4.72;;;;;;;23.14;19.39;97886.09;5076574;28;20067;-75
2022/04/10 05:58:03;;;;;;;7.18;5.30;;;;;;;23.33;19.10;97896.47;5076903;28;20545;-75
2022/04/10 06:00:29;;;;;;;7.65;4.18;;;;;;;23.13;19.25;97890.09;5074434;28;20032;-75
2022/04/10 06:03:00;;;;;;;6.40;4.35;;;;;;;22.55;19.70;97892.44;5072797;28;20028;-75
2022/04/10 06:05:26;;;;;;;5.45;4.43;;;;;;;22.38;19.84;97881.56;5074627;28;20032;-75
2022/04/10 06:07:52;;;;;;;8.50;6.22;;;;;;;22.45;19.86;97893.41;5078076;28;20037;-74
2022/04/10 06:10:18;;;;;;;7.60;4.47;;;;;;;21.93;20.29;97895.13;5073788;28;20034;-75
2022/04/10 06:12:44;;;;;;;6.95;4.35;;;;;;;21.49;20.79;97893.38;5071976;28;20417;-75
2022/04/10 06:15:10;;;;;;;5.75;4.30;;;;;;;21.82;20.52;97900.84;5075647;28;20983;-75
2022/04/10 06:17:36;;;;;;;6.50;4.38;;;;;;;22.60;19.90;97899.53;5077004;28;20040;-75
2022/04/10 06:20:02;;;;;;;5.50;4.13;;;;;;;22.78;19.57;97899.25;5079774;28;20416;-75
2022/04/10 06:22:28;;;;;;;4.15;3.40;;;;;;;22.24;20.03;97910.56;5077774;28;20199;-75
2022/04/10 06:24:54;;;;;;;6.90;4.80;;;;;;;21.96;20.59;97909.03;5074554;28;20079;-76
2022/04/10 06:27:20;;;;;;;6.85;4.75;;;;;;;22.14;20.35;97905.16;5074208;28;20045;-75
2022/04/10 06:29:47;;;;;;;6.22;4.40;;;;;;;22.27;20.57;97908.94;5075071;28;20029;-75
2022/04/10 06:32:14;;;;;;;6.80;3.88;;;;;;;22.57;20.03;97923.56;5075793;28;20515;-75
2022/04/10 06:34:40;;;;;;;6.97;5.15;;;;;;;22.75;19.88;97917.69;5077228;28;20036;-74
2022/04/10 06:37:09;;;;;;;6.47;4.45;;;;;;;22.28;20.26;97918.91;5074770;28;20060;-75
2022/04/10 06:39:36;;;;;;;7.05;4.75;;;;;;;22.21;20.52;97919.03;5074310;28;20030;-75
2022/04/10 06:42:04;;;;;;;10.55;6.57;;;;;;;22.53;20.04;97914.47;5074758;28;20128;-75
2022/04/10 06:44:31;;;;;;;8.95;5.88;;;;;;;21.99;20.64;97918.59;5077143;28;20082;-75
2022/04/10 06:46:57;;;;;;;9.30;6.65;;;;;;;21.46;20.96;97926.94;5078990;28;20040;-75
2022/04/10 06:49:23;;;;;;;7.13;5.40;;;;;;;21.83;20.82;97922.00;5078375;28;20036;-75
2022/04/10 06:51:49;;;;;;;9.48;5.72;;;;;;;22.45;20.47;97932.56;5077083;28;20493;-75
2022/04/10 06:54:15;;;;;;;11.68;6.68;;;;;;;21.86;20.90;97931.56;5074790;28;20024;-75
2022/04/10 06:56:41;;;;;;;9.00;7.10;;;;;;;22.03;20.68;97936.88;5075784;28;20064;-75
2022/04/10 06:59:07;;;;;;;7.65;5.28;;;;;;;21.35;21.42;97932.69;5074131;28;20431;-75
2022/04/10 07:01:33;;;;;;;7.63;5.57;;;;;;;20.66;21.94;97936.66;5075259;28;20365;-74
2022/04/10 07:04:01;;;;;;;7.90;4.88;;;;;;;20.82;22.32;97944.44;5074772;28;20151;-75
2022/04/10 07:06:27;;;;;;;10.85;7.63;;;;;;;20.89;22.11;97938.00;5072800;28;20024;-74
2022/04/10 07:08:53;;;;;;;7.97;5.93;;;;;;;20.18;22.83;97938.69;5070953;28;21140;-75
2022/04/10 07:11:19;;;;;;;8.95;4.90;;;;;;;21.07;22.07;97942.22;5072287;28;20474;-75
2022/04/10 07:13:45;;;;;;;8.60;5.70;;;;;;;22.20;20.79;97937.00;5071499;28;20431;-75
2022/04/10 07:16:11;;;;;;;6.25;5.00;;;;;;;22.84;19.98;97943.09;5072583;28;20028;-75
2022/04/10 07:18:38;;;;;;;7.80;5.50;;;;;;;21.45;21.19;97937.31;5074960;28;20058;-75
2022/04/10 07:21:04;;;;;;;7.45;6.50;;;;;;;22.33;21.01;97936.00;5075276;28;20034;-75
2022/04/10 07:23:43;;;;;;;11.02;6.43;;;;;;;22.54;20.83;97952.41;5070408;28;20059;-75
2022/04/10 07:26:10;;;;;;;7.43;5.18;;;;;;;22.22;21.38;97952.16;5070692;28;20049;-75
2022/04/10 07:28:37;;;;;;;6.95;4.88;;;;;;;20.67;22.86;97956.97;5071581;28;20098;-75
2022/04/10 07:31:05;;;;;;;10.82;5.60;;;;;;;19.66;23.18;97968.50;5075739;28;20119;-76
2022/04/10 07:33:31;;;;;;;9.07;5.53;;;;;;;19.61;23.66;97979.28;5073109;28;20032;-76
2022/04/10 07:35:57;;;;;;;8.85;5.88;;;;;;;18.24;25.30;97949.84;5073914;28;20041;-76
2022/04/10 07:38:23;;;;;;;8.38;5.35;;;;;;;18.82;24.60;97966.06;5071746;28;20033;-75
2022/04/10 07:40:49;;;;;;;7.20;5.22;;;;;;;20.40;22.99;97975.53;5068321;28;20805;-75
2022/04/10 07:43:16;;;;;;;7.18;5.75;;;;;;;21.31;21.37;97957.06;5076402;28;20035;-75
2022/04/10 07:48:27;;;;;;;7.03;5.47;;;;;;;20.49;22.17;97971.06;5074705;28;20093;-77
2022/04/10 07:50:55;;;;;;;6.85;4.60;;;;;;;20.72;21.92;97966.91;5075269;28;20040;-77
2022/04/10 07:53:21;;;;;;;8.48;5.18;;;;;;;20.91;21.68;97975.44;5071882;28;20024;-75
2022/04/10 07:55:47;;;;;;;7.78;4.30;;;;;;;20.95;20.83;97969.84;5075002;28;20037;-75
2022/04/10 07:58:13;;;;;;;4.57;3.70;;;;;;;19.96;22.17;97979.84;5073385;28;20040;-75
2022/04/10 08:00:40;;;;;;;5.45;3.42;;;;;;;20.12;22.21;97984.91;5074845;28;20526;-75
2022/04/10 08:03:06;;;;;;;5.45;3.35;;;;;;;19.59;22.92;97974.13;5072334;28;20032;-75
2022/04/10 08:05:32;;;;;;;6.20;3.13;;;;;;;20.85;21.25;97982.69;5072609;28;20040;-75
2022/04/10 08:07:58;;;;;;;5.78;3.25;;;;;;;21.78;20.15;97972.78;5071420;28;20040;-75
2022/04/10 08:10:24;;;;;;;5.72;2.97;;;;;;;21.58;20.46;97973.88;5073729;28;20031;-75
2022/04/10 08:12:51;;;;;;;4.05;3.03;;;;;;;22.20;19.31;97981.75;5074203;28;20047;-76
2022/04/10 08:15:17;;;;;;;5.28;2.78;;;;;;;23.11;18.81;97985.75;5077035;28;20048;-75
2022/04/10 08:17:43;;;;;;;5.43;3.17;;;;;;;23.73;18.54;97984.91;5072794;28;20028;-76
2022/04/10 08:20:10;;;;;;;3.22;2.58;;;;;;;22.89;19.33;97989.41;5074781;28;20066;-76
2022/04/10 08:22:37;;;;;;;4.75;3.72;;;;;;;22.30;19.49;97983.59;5077814;28;20028;-76
2022/04/10 08:25:06;;;;;;;3.10;2.10;;;;;;;22.02;19.62;97994.03;5071619;28;20051;-77
2022/04/10 08:27:32;;;;;;;3.58;2.35;;;;;;;22.45;19.45;97990.56;5079534;28;20044;-76
2022/04/10 08:29:59;;;;;;;5.07;2.20;;;;;;;22.59;19.33;98002.28;5074616;28;20444;-76
2022/04/10 08:32:25;;;;;;;3.40;2.92;;;;;;;23.02;18.76;97999.53;5074586;28;20375;-76
2022/04/10 08:34:52;;;;;;;8.52;3.65;;;;;;;21.79;19.40;97995.94;5079793;28;20040;-76
2022/04/10 08:37:18;;;;;;;3.35;2.38;;;;;;;23.11;18.41;98005.38;5077279;28;20107;-75
2022/04/10 08:39:44;;;;;;;4.82;3.13;;;;;;;22.44;18.92;97998.16;5066253;28;20036;-75
2022/04/10 08:42:10;;;;;;;6.00;3.38;;;;;;;22.99;18.87;98011.59;5078130;28;20036;-76
2022/04/10 08:44:37;;;;;;;4.22;2.65;;;;;;;23.49;18.82;98002.25;5076187;28;20032;-75
2022/04/10 08:47:04;;;;;;;6.00;3.20;;;;;;;23.61;18.23;98008.00;5068720;28;20093;-76
2022/04/10 08:49:32;;;;;;;5.15;2.42;;;;;;;24.22;18.15;98008.25;5070913;28;20020;-76
2022/04/10 08:51:59;;;;;;;3.60;2.85;;;;;;;24.59;17.75;98010.56;5075328;28;20037;-76
2022/04/10 08:54:28;;;;;;;4.25;2.45;;;;;;;24.57;17.52;98020.63;5075689;28;20032;-75
2022/04/10 08:56:55;;;;;;;4.82;2.50;;;;;;;23.28;18.51;98012.63;5077614;28;20094;-76
2022/04/10 08:59:22;;;;;;;4.72;3.20;;;;;;;23.30;18.36;98015.00;5079302;28;20039;-76
2022/04/10 09:01:56;;;;;;;7.75;3.40;;;;;;;23.20;18.57;98024.41;5072631;28;20125;-76
2022/04/10 09:04:23;;;;;;;7.07;3.70;;;;;;;22.03;19.45;98015.16;5076531;28;20032;-76
2022/04/10 09:07:02;;;;;;;4.82;2.88;;;;;;;21.50;20.77;98026.25;5075714;28;20020;-76
2022/04/10 09:09:31;;;;;;;3.45;2.28;;;;;;;22.05;20.15;98011.16;5074358;28;20113;-76
2022/04/10 09:11:58;;;;;;;7.15;3.00;;;;;;;22.00;19.58;98021.63;5074506;28;20040;-75
2022/04/10 09:14:29;;;;;;;7.20;3.05;;;;;;;20.98;20.80;98013.66;5072481;28;20111;-76
2022/04/10 09:17:13;;;;;;;6.57;2.65;;;;;;;22.35;19.15;98019.50;5072289;28;20094;-75
2022/04/10 09:19:43;;;;;;;6.63;3.40;;;;;;;22.68;18.98;98013.75;5073518;28;20055;-76
2022/04/10 09:22:28;;;;;;;4.63;2.70;;;;;;;22.90;18.82;98010.56;5077866;28;20039;-76
2022/04/10 09:25:14;;;;;;;6.43;2.58;;;;;;;22.43;19.09;98013.34;5076651;28;20438;-75
2022/04/10 09:27:48;;;;;;;5.00;2.60;;;;;;;23.47;18.35;98013.09;5075459;28;20047;-76
2022/04/10 09:30:19;;;;;;;10.35;2.60;;;;;;;23.71;17.69;98006.97;5072195;28;20032;-77
2022/04/10 09:32:47;;;;;;;10.23;2.97;;;;;;;22.68;18.88;98019.34;5076227;28;20024;-77
2022/04/10 09:35:16;;;;;;;3.95;2.17;;;;;;;23.35;18.43;98015.34;5074288;28;20143;-76
2022/04/10 09:37:55;;;;;;;4.72;2.30;;;;;;;23.94;18.11;98009.66;5073226;28;20024;-76
2022/04/10 09:40:27;;;;;;;6.85;2.55;;;;;;;24.57;17.22;98015.03;5073744;28;20040;-76
2022/04/10 09:43:04;;;;;;;5.55;2.10;;;;;;;24.21;17.31;98015.09;5072397;28;20040;-77
2022/04/10 09:45:43;;;;;;;5.15;2.17;;;;;;;23.96;17.23;98006.44;5072089;28;20244;-77
2022/04/10 09:48:31;;;;;;;4.22;2.63;;;;;;;24.27;16.63;98004.13;5076530;28;20447;-76
2022/04/10 09:51:02;;;;;;;5.03;1.98;;;;;;;25.11;16.89;98001.97;5078752;28;20036;-76
2022/04/10 09:53:29;;;;;;;4.50;1.98;;;;;;;25.50;16.12;98000.91;5075076;28;20032;-77
2022/04/10 09:56:03;;;;;;;3.92;2.28;;;;;;;25.70;16.42;97993.09;5079084;28;20082;-76
2022/04/10 09:58:31;;;;;;;4.85;2.20;;;;;;;25.92;15.60;97996.03;5084216;28;20047;-76
2022/04/10 10:00:58;;;;;;;3.65;1.73;;;;;;;24.63;16.92;97994.41;5073502;28;20047;-76
2022/04/10 10:03:29;;;;;;;3.72;1.70;;;;;;;25.20;16.34;97993.72;5076560;28;20393;-76
2022/04/10 10:05:57;;;;;;;3.38;1.58;;;;;;;26.33;16.02;97984.69;5073362;28;20082;-75
2022/04/10 10:08:24;;;;;;;4.32;1.95;;;;;;;26.49;15.41;97978.94;5077014;28;20093;-76
2022/04/10 10:10:50;;;;;;;4.60;2.00;;;;;;;25.83;15.25;97985.47;5073992;28;20040;-75
2022/04/10 10:13:17;;;;;;;3.70;1.38;;;;;;;23.97;17.57;97996.78;5075748;28;20032;-75
2022/04/10 10:15:44;;;;;;;3.53;2.08;;;;;;;23.70;17.89;97990.59;5076618;28;20035;-75
2022/04/10 10:18:12;;;;;;;2.72;1.42;;;;;;;23.32;18.08;97990.16;5073648;28;20024;-75
2022/04/10 10:20:40;;;;;;;5.25;2.10;;;;;;;23.69;16.69;97978.56;5080628;28;20028;-75
2022/04/10 10:23:14;;;;;;;6.03;2.15;;;;;;;24.73;16.08;97978.50;5074830;28;20097;-75
2022/04/10 10:25:58;;;;;;;3.33;1.55;;;;;;;25.54;16.67;97979.09;5075954;28;20047;-77
2022/04/10 10:29:01;;;;;;;2.50;1.50;;;;;;;23.00;18.50;97978.78;5079848;28;20051;-75
2022/04/10 10:32:01;;;;;;;5.03;2.13;;;;;;;21.39;20.03;97978.09;5074216;28;20036;-76
2022/04/10 10:34:29;;;;;;;4.10;2.08;;;;;;;20.57;21.41;97996.91;5074404;28;20032;-75
2022/04/10 10:36:57;;;;;;;3.65;1.88;;;;;;;20.65;21.24;98004.78;5074596;28;20029;-75
2022/04/10 10:39:28;;;;;;;5.75;2.20;;;;;;;18.22;24.62;98019.72;5075040;28;20053;-75
2022/04/10 10:42:08;;;;;;;4.47;2.03;;;;;;;17.42;26.14;98023.06;5079798;28;20432;-76
2022/04/10 10:44:34;;;;;;;3.60;1.97;;;;;;;19.10;24.16;98016.06;5084684;28;20082;-75
2022/04/10 10:47:03;;;;;;;3.83;2.53;;;;;;;19.68;23.42;98024.59;5073059;28;20079;-75
2022/04/10 10:49:30;;;;;;;3.78;1.58;;;;;;;19.81;22.20;98019.38;5074172;28;20116;-77
2022/04/10 10:51:58;;;;;;;3.15;1.40;;;;;;;21.40;20.87;98023.59;5080164;28;20032;-75
2022/04/10 10:54:31;;;;;;;2.35;1.00;;;;;;;21.74;20.43;98005.59;5079180;28;20481;-76
2022/04/10 10:56:58;;;;;;;3.40;1.00;;;;;;;21.47;19.93;98021.47;5075844;28;20032;-77
2022/04/10 10:59:31;;;;;;;2.65;0.70;;;;;;;21.17;20.65;98008.28;5074208;28;20082;-76
2022/04/10 11:02:07;;;;;;;1.13;0.68;;;;;;;21.56;20.02;98007.81;5073699;28;20474;-76
2022/04/10 11:04:41;;;;;;;2.90;0.95;;;;;;;21.97;20.13;97994.50;5087446;28;20396;-76
2022/04/10 11:07:19;;;;;;;2.67;1.27;;;;;;;23.14;18.16;97998.13;5078037;28;20036;-76
2022/04/10 11:10:00;;;;;;;1.25;0.98;;;;;;;23.10;18.96;98000.19;5078019;28;20115;-78
2022/04/10 11:12:34;;;;;;;;;;;;;;;22.65;18.60;97997.81;5078319;28;20504;-76
2022/04/10 11:15:11;;;;;;;2.28;1.17;;;;;;;22.76;19.03;98000.41;5078756;28;19920;-76
2022/04/10 11:17:39;;;;;;;3.70;1.05;;;;;;;22.87;18.81;98006.59;5073580;28;20374;-76
2022/04/10 11:20:09;;;;;;;4.57;1.15;;;;;;;23.49;18.52;98011.44;5074986;28;20386;-76
2022/04/10 11:22:52;;;;;;;1.77;1.25;;;;;;;22.34;19.88;98017.88;5081307;28;20047;-76
2022/04/10 11:25:38;;;;;;;2.47;1.38;;;;;;;20.15;22.99;98023.13;5074023;28;20047;-76
2022/04/10 11:28:07;;;;;;;4.97;1.17;;;;;;;19.89;22.93;98030.06;5076631;28;20040;-76
2022/04/10 11:30:47;;;;;;;1.20;0.80;;;;;;;20.47;22.17;98032.06;5079905;28;20032;-76
2022/04/10 11:33:14;;;;;;;4.18;0.90;;;;;;;21.66;21.34;98025.63;5079631;28;20154;-75
2022/04/10 11:35:43;;;;;;;1.52;0.85;;;;;;;22.55;20.06;98021.13;5083507;28;20028;-75
2022/04/10 11:38:17;;;;;;;1.90;0.82;;;;;;;23.81;18.92;98019.16;5075906;28;20025;-75
2022/04/10 11:40:47;;;;;;;0.95;0.70;;;;;;;24.28;18.42;98011.31;5070703;28;20039;-75